sensor_id;sensor_type;location;lat;lon;timestamp;temperature;humidity
52656;SHT85;35474;51.032;6.998;2023-05-10T00:00:34;12.96;99.14
52656;SHT85;35474;51.032;6.998;2023-05-10T00:03:01;12.92;99.15
52656;SHT85;35474;51.032;6.998;2023-05-10T00:05:28;13.02;99.13
52656;SHT85;35474;51.032;6.998;2023-05-10T00:07:54;13.05;99.14
52656;SHT85;35474;51.032;6.998;2023-05-10T00:10:21;13.05;99.15
52656;SHT85;35474;51.032;6.998;2023-05-10T00:12:48;12.99;99.14
52656;SHT85;35474;51.032;6.998;2023-05-10T00:15:15;13.03;99.09
52656;SHT85;35474;51.032;6.998;2023-05-10T00:17:41;13.00;99.09
52656;SHT85;35474;51.032;6.998;2023-05-10T00:20:08;12.95;99.11
52656;SHT85;35474;51.032;6.998;2023-05-10T00:22:35;13.02;99.11
52656;SHT85;35474;51.032;6.998;2023-05-10T00:25:02;13.09;99.16
52656;SHT85;35474;51.032;6.998;2023-05-10T00:27:32;13.00;99.16
52656;SHT85;35474;51.032;6.998;2023-05-10T00:29:58;13.03;99.16
52656;SHT85;35474;51.032;6.998;2023-05-10T00:32:32;13.02;99.16
52656;SHT85;35474;51.032;6.998;2023-05-10T00:34:59;13.13;99.24
52656;SHT85;35474;51.032;6.998;2023-05-10T00:37:25;13.02;99.20
52656;SHT85;35474;51.032;6.998;2023-05-10T00:39:52;13.07;99.29
52656;SHT85;35474;51.032;6.998;2023-05-10T00:42:19;13.13;99.31
52656;SHT85;35474;51.032;6.998;2023-05-10T00:44:45;13.03;99.27
52656;SHT85;35474;51.032;6.998;2023-05-10T00:47:13;13.23;99.30
52656;SHT85;35474;51.032;6.998;2023-05-10T00:49:40;13.09;99.27
52656;SHT85;35474;51.032;6.998;2023-05-10T00:52:08;13.05;99.25
52656;SHT85;35474;51.032;6.998;2023-05-10T00:54:35;13.02;99.24
52656;SHT85;35474;51.032;6.998;2023-05-10T00:57:02;13.16;99.26
52656;SHT85;35474;51.032;6.998;2023-05-10T00:59:29;13.13;99.25
52656;SHT85;35474;51.032;6.998;2023-05-10T01:01:56;13.06;99.24
52656;SHT85;35474;51.032;6.998;2023-05-10T01:04:24;13.05;99.19
52656;SHT85;35474;51.032;6.998;2023-05-10T01:06:53;13.05;99.26
52656;SHT85;35474;51.032;6.998;2023-05-10T01:09:21;13.06;99.25
52656;SHT85;35474;51.032;6.998;2023-05-10T01:11:48;13.05;99.18
52656;SHT85;35474;51.032;6.998;2023-05-10T01:14:15;13.06;99.20
52656;SHT85;35474;51.032;6.998;2023-05-10T01:16:45;13.07;99.21
52656;SHT85;35474;51.032;6.998;2023-05-10T01:19:17;13.12;99.22
52656;SHT85;35474;51.032;6.998;2023-05-10T01:21:49;13.12;99.20
52656;SHT85;35474;51.032;6.998;2023-05-10T01:33:13;13.11;99.14
52656;SHT85;35474;51.032;6.998;2023-05-10T01:35:54;13.02;99.18
52656;SHT85;35474;51.032;6.998;2023-05-10T01:41:15;13.07;99.07
52656;SHT85;35474;51.032;6.998;2023-05-10T01:43:55;13.05;98.97
52656;SHT85;35474;51.032;6.998;2023-05-10T01:46:28;13.03;98.87
52656;SHT85;35474;51.032;6.998;2023-05-10T01:49:01;12.99;98.77
52656;SHT85;35474;51.032;6.998;2023-05-10T01:51:39;12.95;98.78
52656;SHT85;35474;51.032;6.998;2023-05-10T01:54:10;12.93;98.83
52656;SHT85;35474;51.032;6.998;2023-05-10T01:56:39;12.89;98.90
52656;SHT85;35474;51.032;6.998;2023-05-10T01:59:12;12.92;98.93
52656;SHT85;35474;51.032;6.998;2023-05-10T02:01:43;12.92;98.94
52656;SHT85;35474;51.032;6.998;2023-05-10T02:04:11;12.89;98.90
52656;SHT85;35474;51.032;6.998;2023-05-10T02:06:42;12.95;98.93
52656;SHT85;35474;51.032;6.998;2023-05-10T02:09:10;12.93;98.97
52656;SHT85;35474;51.032;6.998;2023-05-10T02:11:37;12.92;99.07
52656;SHT85;35474;51.032;6.998;2023-05-10T02:14:05;13.00;99.08
52656;SHT85;35474;51.032;6.998;2023-05-10T02:16:35;13.00;99.07
52656;SHT85;35474;51.032;6.998;2023-05-10T02:19:04;13.02;99.06
52656;SHT85;35474;51.032;6.998;2023-05-10T02:21:32;13.07;99.05
52656;SHT85;35474;51.032;6.998;2023-05-10T02:24:00;12.81;98.95
52656;SHT85;35474;51.032;6.998;2023-05-10T02:26:29;12.72;98.90
52656;SHT85;35474;51.032;6.998;2023-05-10T02:28:57;12.78;98.94
52656;SHT85;35474;51.032;6.998;2023-05-10T02:31:25;12.74;98.99
52656;SHT85;35474;51.032;6.998;2023-05-10T02:33:52;12.69;98.94
52656;SHT85;35474;51.032;6.998;2023-05-10T02:36:20;12.69;98.94
52656;SHT85;35474;51.032;6.998;2023-05-10T02:38:47;12.64;98.82
52656;SHT85;35474;51.032;6.998;2023-05-10T02:41:16;12.76;98.85
52656;SHT85;35474;51.032;6.998;2023-05-10T02:43:44;12.86;98.96
52656;SHT85;35474;51.032;6.998;2023-05-10T02:46:13;12.91;98.95
52656;SHT85;35474;51.032;6.998;2023-05-10T02:48:39;12.84;98.93
52656;SHT85;35474;51.032;6.998;2023-05-10T02:51:07;12.88;98.95
52656;SHT85;35474;51.032;6.998;2023-05-10T02:53:35;12.86;98.93
52656;SHT85;35474;51.032;6.998;2023-05-10T02:56:05;13.11;98.93
52656;SHT85;35474;51.032;6.998;2023-05-10T02:58:40;12.98;98.83
52656;SHT85;35474;51.032;6.998;2023-05-10T03:01:07;12.98;98.89
52656;SHT85;35474;51.032;6.998;2023-05-10T03:03:34;13.13;98.92
52656;SHT85;35474;51.032;6.998;2023-05-10T03:06:00;13.40;98.89
52656;SHT85;35474;51.032;6.998;2023-05-10T03:08:27;13.44;98.83
52656;SHT85;35474;51.032;6.998;2023-05-10T03:16:36;13.42;98.69
52656;SHT85;35474;51.032;6.998;2023-05-10T03:19:12;13.44;98.64
52656;SHT85;35474;51.032;6.998;2023-05-10T03:21:59;13.33;98.67
52656;SHT85;35474;51.032;6.998;2023-05-10T03:24:28;13.33;98.46
52656;SHT85;35474;51.032;6.998;2023-05-10T03:26:56;13.37;98.52
52656;SHT85;35474;51.032;6.998;2023-05-10T03:29:29;13.60;98.55
52656;SHT85;35474;51.032;6.998;2023-05-10T03:31:57;13.37;98.39
52656;SHT85;35474;51.032;6.998;2023-05-10T03:34:26;13.51;98.13
52656;SHT85;35474;51.032;6.998;2023-05-10T03:36:52;13.54;97.45
52656;SHT85;35474;51.032;6.998;2023-05-10T03:39:19;13.48;97.57
52656;SHT85;35474;51.032;6.998;2023-05-10T03:41:47;13.70;97.53
52656;SHT85;35474;51.032;6.998;2023-05-10T03:44:13;13.65;97.55
52656;SHT85;35474;51.032;6.998;2023-05-10T03:46:40;13.33;97.21
52656;SHT85;35474;51.032;6.998;2023-05-10T03:49:07;13.03;97.30
52656;SHT85;35474;51.032;6.998;2023-05-10T03:51:34;13.00;97.51
52656;SHT85;35474;51.032;6.998;2023-05-10T03:54:00;13.18;97.60
52656;SHT85;35474;51.032;6.998;2023-05-10T03:56:27;13.39;97.54
52656;SHT85;35474;51.032;6.998;2023-05-10T03:58:53;13.40;97.48
52656;SHT85;35474;51.032;6.998;2023-05-10T04:01:20;13.46;97.26
52656;SHT85;35474;51.032;6.998;2023-05-10T04:03:46;13.37;97.29
52656;SHT85;35474;51.032;6.998;2023-05-10T04:06:13;13.50;97.36
52656;SHT85;35474;51.032;6.998;2023-05-10T04:08:40;13.50;97.04
52656;SHT85;35474;51.032;6.998;2023-05-10T04:11:07;13.60;96.83
52656;SHT85;35474;51.032;6.998;2023-05-10T04:13:35;13.63;96.91
52656;SHT85;35474;51.032;6.998;2023-05-10T04:16:02;13.80;96.97
52656;SHT85;35474;51.032;6.998;2023-05-10T04:18:29;13.84;96.99
52656;SHT85;35474;51.032;6.998;2023-05-10T04:20:56;13.53;96.62
52656;SHT85;35474;51.032;6.998;2023-05-10T04:23:23;13.61;96.73
52656;SHT85;35474;51.032;6.998;2023-05-10T04:25:50;13.43;96.44
52656;SHT85;35474;51.032;6.998;2023-05-10T04:28:16;13.43;96.56
52656;SHT85;35474;51.032;6.998;2023-05-10T04:30:43;13.48;96.68
52656;SHT85;35474;51.032;6.998;2023-05-10T04:33:09;13.47;96.69
52656;SHT85;35474;51.032;6.998;2023-05-10T04:35:36;13.43;96.53
52656;SHT85;35474;51.032;6.998;2023-05-10T04:38:03;13.39;96.31
52656;SHT85;35474;51.032;6.998;2023-05-10T04:40:30;13.50;96.26
52656;SHT85;35474;51.032;6.998;2023-05-10T04:42:56;13.61;96.22
52656;SHT85;35474;51.032;6.998;2023-05-10T04:45:23;13.44;96.17
52656;SHT85;35474;51.032;6.998;2023-05-10T04:47:49;13.44;96.26
52656;SHT85;35474;51.032;6.998;2023-05-10T04:50:16;13.32;95.80
52656;SHT85;35474;51.032;6.998;2023-05-10T04:52:43;13.42;95.73
52656;SHT85;35474;51.032;6.998;2023-05-10T04:55:10;13.44;95.37
52656;SHT85;35474;51.032;6.998;2023-05-10T04:57:37;13.47;95.43
52656;SHT85;35474;51.032;6.998;2023-05-10T05:00:04;13.51;95.40
52656;SHT85;35474;51.032;6.998;2023-05-10T05:02:31;13.57;95.42
52656;SHT85;35474;51.032;6.998;2023-05-10T05:04:58;13.57;95.15
52656;SHT85;35474;51.032;6.998;2023-05-10T05:07:24;13.53;95.27
52656;SHT85;35474;51.032;6.998;2023-05-10T05:09:51;13.44;95.19
52656;SHT85;35474;51.032;6.998;2023-05-10T05:12:18;13.46;95.15
52656;SHT85;35474;51.032;6.998;2023-05-10T05:14:44;13.50;95.00
52656;SHT85;35474;51.032;6.998;2023-05-10T05:17:14;13.57;94.81
52656;SHT85;35474;51.032;6.998;2023-05-10T05:19:40;13.70;94.64
52656;SHT85;35474;51.032;6.998;2023-05-10T05:22:07;13.70;94.68
52656;SHT85;35474;51.032;6.998;2023-05-10T05:24:35;13.60;94.66
52656;SHT85;35474;51.032;6.998;2023-05-10T05:27:04;13.64;94.45
52656;SHT85;35474;51.032;6.998;2023-05-10T05:29:32;13.47;93.85
52656;SHT85;35474;51.032;6.998;2023-05-10T05:31:59;13.56;93.56
52656;SHT85;35474;51.032;6.998;2023-05-10T05:34:26;13.56;93.47
52656;SHT85;35474;51.032;6.998;2023-05-10T05:36:53;13.60;93.41
52656;SHT85;35474;51.032;6.998;2023-05-10T05:39:20;13.64;93.81
52656;SHT85;35474;51.032;6.998;2023-05-10T05:41:46;13.67;93.87
52656;SHT85;35474;51.032;6.998;2023-05-10T05:44:13;13.70;94.11
52656;SHT85;35474;51.032;6.998;2023-05-10T05:46:39;13.74;94.05
52656;SHT85;35474;51.032;6.998;2023-05-10T05:49:06;13.61;93.02
52656;SHT85;35474;51.032;6.998;2023-05-10T05:51:32;13.58;93.09
52656;SHT85;35474;51.032;6.998;2023-05-10T05:54:00;13.60;92.44
52656;SHT85;35474;51.032;6.998;2023-05-10T05:56:27;13.60;92.61
52656;SHT85;35474;51.032;6.998;2023-05-10T05:58:54;13.68;92.77
52656;SHT85;35474;51.032;6.998;2023-05-10T06:01:21;13.78;92.82
52656;SHT85;35474;51.032;6.998;2023-05-10T06:03:48;13.58;92.12
52656;SHT85;35474;51.032;6.998;2023-05-10T06:06:17;13.60;92.08
52656;SHT85;35474;51.032;6.998;2023-05-10T06:08:44;13.61;91.88
52656;SHT85;35474;51.032;6.998;2023-05-10T06:11:10;13.71;92.17
52656;SHT85;35474;51.032;6.998;2023-05-10T06:13:37;13.58;91.89
52656;SHT85;35474;51.032;6.998;2023-05-10T06:16:03;13.57;91.62
52656;SHT85;35474;51.032;6.998;2023-05-10T06:18:30;13.70;91.45
52656;SHT85;35474;51.032;6.998;2023-05-10T06:20:57;13.70;91.39
52656;SHT85;35474;51.032;6.998;2023-05-10T06:23:24;13.65;91.60
52656;SHT85;35474;51.032;6.998;2023-05-10T06:25:52;13.81;91.73
52656;SHT85;35474;51.032;6.998;2023-05-10T06:28:19;14.04;92.05
52656;SHT85;35474;51.032;6.998;2023-05-10T06:32:34;13.60;92.24
52656;SHT85;35474;51.032;6.998;2023-05-10T06:35:01;13.77;92.51
52656;SHT85;35474;51.032;6.998;2023-05-10T06:37:28;13.64;92.28
52656;SHT85;35474;51.032;6.998;2023-05-10T06:39:54;13.56;92.05
52656;SHT85;35474;51.032;6.998;2023-05-10T06:42:21;13.51;91.72
52656;SHT85;35474;51.032;6.998;2023-05-10T06:44:48;13.54;91.95
52656;SHT85;35474;51.032;6.998;2023-05-10T06:47:15;13.56;91.88
52656;SHT85;35474;51.032;6.998;2023-05-10T06:49:41;13.58;91.98
52656;SHT85;35474;51.032;6.998;2023-05-10T06:52:08;13.54;92.56
52656;SHT85;35474;51.032;6.998;2023-05-10T06:54:34;13.37;92.74
52656;SHT85;35474;51.032;6.998;2023-05-10T06:57:01;13.33;93.44
52656;SHT85;35474;51.032;6.998;2023-05-10T06:59:36;13.39;93.84
52656;SHT85;35474;51.032;6.998;2023-05-10T07:02:02;13.27;94.33
52656;SHT85;35474;51.032;6.998;2023-05-10T07:04:29;13.18;94.63
52656;SHT85;35474;51.032;6.998;2023-05-10T07:06:56;13.22;95.25
52656;SHT85;35474;51.032;6.998;2023-05-10T07:09:23;13.19;95.57
52656;SHT85;35474;51.032;6.998;2023-05-10T07:11:50;13.22;95.77
52656;SHT85;35474;51.032;6.998;2023-05-10T07:14:17;13.16;95.77
52656;SHT85;35474;51.032;6.998;2023-05-10T07:16:43;13.20;96.20
52656;SHT85;35474;51.032;6.998;2023-05-10T07:19:11;13.23;96.26
52656;SHT85;35474;51.032;6.998;2023-05-10T07:21:37;13.32;96.34
52656;SHT85;35474;51.032;6.998;2023-05-10T07:24:06;13.32;96.38
52656;SHT85;35474;51.032;6.998;2023-05-10T07:26:33;13.27;96.31
52656;SHT85;35474;51.032;6.998;2023-05-10T07:28:59;13.23;96.14
52656;SHT85;35474;51.032;6.998;2023-05-10T07:31:26;13.34;96.31
52656;SHT85;35474;51.032;6.998;2023-05-10T07:33:52;13.30;96.41
52656;SHT85;35474;51.032;6.998;2023-05-10T07:36:19;13.43;96.49
52656;SHT85;35474;51.032;6.998;2023-05-10T07:38:46;13.37;96.42
52656;SHT85;35474;51.032;6.998;2023-05-10T07:41:12;13.44;96.52
52656;SHT85;35474;51.032;6.998;2023-05-10T07:43:39;13.47;96.39
52656;SHT85;35474;51.032;6.998;2023-05-10T07:46:06;13.47;96.27
52656;SHT85;35474;51.032;6.998;2023-05-10T07:48:32;13.67;96.20
52656;SHT85;35474;51.032;6.998;2023-05-10T07:50:59;13.56;95.71
52656;SHT85;35474;51.032;6.998;2023-05-10T07:53:26;13.83;96.03
52656;SHT85;35474;51.032;6.998;2023-05-10T07:55:58;13.97;96.06
52656;SHT85;35474;51.032;6.998;2023-05-10T07:58:25;13.97;95.78
52656;SHT85;35474;51.032;6.998;2023-05-10T08:00:52;14.14;95.96
52656;SHT85;35474;51.032;6.998;2023-05-10T08:03:18;14.28;95.81
52656;SHT85;35474;51.032;6.998;2023-05-10T08:05:45;14.33;95.43
52656;SHT85;35474;51.032;6.998;2023-05-10T08:08:12;14.53;94.13
52656;SHT85;35474;51.032;6.998;2023-05-10T08:10:39;14.39;94.39
52656;SHT85;35474;51.032;6.998;2023-05-10T08:13:05;14.22;94.34
52656;SHT85;35474;51.032;6.998;2023-05-10T08:15:32;13.87;93.53
52656;SHT85;35474;51.032;6.998;2023-05-10T08:17:58;13.98;94.11
52656;SHT85;35474;51.032;6.998;2023-05-10T08:20:25;14.09;94.23
52656;SHT85;35474;51.032;6.998;2023-05-10T08:22:52;14.08;94.18
52656;SHT85;35474;51.032;6.998;2023-05-10T08:25:19;13.77;93.57
52656;SHT85;35474;51.032;6.998;2023-05-10T08:27:46;13.77;93.91
52656;SHT85;35474;51.032;6.998;2023-05-10T08:30:12;13.77;94.02
52656;SHT85;35474;51.032;6.998;2023-05-10T08:32:39;13.74;94.07
52656;SHT85;35474;51.032;6.998;2023-05-10T08:35:06;13.64;93.88
52656;SHT85;35474;51.032;6.998;2023-05-10T08:37:33;13.68;93.82
52656;SHT85;35474;51.032;6.998;2023-05-10T08:39:59;13.80;93.94
52656;SHT85;35474;51.032;6.998;2023-05-10T08:42:26;13.93;93.70
52656;SHT85;35474;51.032;6.998;2023-05-10T08:44:57;13.88;93.60
52656;SHT85;35474;51.032;6.998;2023-05-10T08:47:25;13.90;93.79
52656;SHT85;35474;51.032;6.998;2023-05-10T08:49:52;13.84;93.16
52656;SHT85;35474;51.032;6.998;2023-05-10T08:52:20;13.81;93.42
52656;SHT85;35474;51.032;6.998;2023-05-10T08:54:50;13.73;93.66
52656;SHT85;35474;51.032;6.998;2023-05-10T08:57:16;13.68;94.30
52656;SHT85;35474;51.032;6.998;2023-05-10T08:59:44;13.71;94.43
52656;SHT85;35474;51.032;6.998;2023-05-10T09:02:12;13.84;94.60
52656;SHT85;35474;51.032;6.998;2023-05-10T09:04:43;13.71;94.38
52656;SHT85;35474;51.032;6.998;2023-05-10T09:07:10;13.81;94.19
52656;SHT85;35474;51.032;6.998;2023-05-10T09:09:36;13.87;93.55
52656;SHT85;35474;51.032;6.998;2023-05-10T09:12:03;14.01;93.49
52656;SHT85;35474;51.032;6.998;2023-05-10T09:14:30;14.21;93.48
52656;SHT85;35474;51.032;6.998;2023-05-10T09:17:00;14.26;93.60
52656;SHT85;35474;51.032;6.998;2023-05-10T09:19:27;14.37;93.01
52656;SHT85;35474;51.032;6.998;2023-05-10T09:21:54;14.29;93.08
52656;SHT85;35474;51.032;6.998;2023-05-10T09:24:24;14.23;91.12
52656;SHT85;35474;51.032;6.998;2023-05-10T09:26:52;14.22;91.39
52656;SHT85;35474;51.032;6.998;2023-05-10T09:29:18;14.30;91.54
52656;SHT85;35474;51.032;6.998;2023-05-10T09:31:46;14.64;92.04
52656;SHT85;35474;51.032;6.998;2023-05-10T09:34:18;14.64;92.02
52656;SHT85;35474;51.032;6.998;2023-05-10T09:36:53;14.52;91.66
52656;SHT85;35474;51.032;6.998;2023-05-10T09:39:22;14.60;90.84
52656;SHT85;35474;51.032;6.998;2023-05-10T09:41:57;14.40;91.24
52656;SHT85;35474;51.032;6.998;2023-05-10T09:44:25;14.51;92.34
52656;SHT85;35474;51.032;6.998;2023-05-10T09:46:52;14.35;92.22
52656;SHT85;35474;51.032;6.998;2023-05-10T09:49:20;14.49;93.01
52656;SHT85;35474;51.032;6.998;2023-05-10T09:51:47;14.29;91.83
52656;SHT85;35474;51.032;6.998;2023-05-10T09:54:25;14.33;91.89
52656;SHT85;35474;51.032;6.998;2023-05-10T09:56:52;14.18;90.88
52656;SHT85;35474;51.032;6.998;2023-05-10T09:59:18;14.08;90.84
52656;SHT85;35474;51.032;6.998;2023-05-10T10:01:51;14.12;90.36
52656;SHT85;35474;51.032;6.998;2023-05-10T10:04:19;14.26;90.89
52656;SHT85;35474;51.032;6.998;2023-05-10T10:06:46;14.29;89.77
52656;SHT85;35474;51.032;6.998;2023-05-10T10:09:24;14.64;89.78
52656;SHT85;35474;51.032;6.998;2023-05-10T10:11:51;14.63;89.03
52656;SHT85;35474;51.032;6.998;2023-05-10T10:14:18;14.73;88.79
52656;SHT85;35474;51.032;6.998;2023-05-10T10:16:46;14.85;89.06
52656;SHT85;35474;51.032;6.998;2023-05-10T10:19:32;14.62;88.70
52656;SHT85;35474;51.032;6.998;2023-05-10T10:22:01;14.79;88.91
52656;SHT85;35474;51.032;6.998;2023-05-10T10:24:29;14.79;88.00
52656;SHT85;35474;51.032;6.998;2023-05-10T10:26:56;15.00;88.73
52656;SHT85;35474;51.032;6.998;2023-05-10T10:29:36;14.94;87.44
52656;SHT85;35474;51.032;6.998;2023-05-10T10:34:46;15.00;87.13
52656;SHT85;35474;51.032;6.998;2023-05-10T10:37:14;15.18;87.17
52656;SHT85;35474;51.032;6.998;2023-05-10T10:39:40;15.31;85.82
52656;SHT85;35474;51.032;6.998;2023-05-10T10:42:07;15.77;85.41
52656;SHT85;35474;51.032;6.998;2023-05-10T10:44:36;15.73;84.47
52656;SHT85;35474;51.032;6.998;2023-05-10T10:52:33;15.31;84.22
52656;SHT85;35474;51.032;6.998;2023-05-10T11:00:21;15.34;82.69
52656;SHT85;35474;51.032;6.998;2023-05-10T11:02:51;15.99;82.78
52656;SHT85;35474;51.032;6.998;2023-05-10T11:07:54;15.83;80.83
52656;SHT85;35474;51.032;6.998;2023-05-10T11:10:22;16.18;80.83
52656;SHT85;35474;51.032;6.998;2023-05-10T11:12:59;17.11;78.93
52656;SHT85;35474;51.032;6.998;2023-05-10T11:15:37;17.96;74.80
52656;SHT85;35474;51.032;6.998;2023-05-10T11:18:24;16.67;76.30
52656;SHT85;35474;51.032;6.998;2023-05-10T11:20:59;15.90;78.05
52656;SHT85;35474;51.032;6.998;2023-05-10T11:23:47;15.69;78.61
52656;SHT85;35474;51.032;6.998;2023-05-10T11:26:18;15.83;79.32
52656;SHT85;35474;51.032;6.998;2023-05-10T11:28:52;15.70;78.78
52656;SHT85;35474;51.032;6.998;2023-05-10T11:31:21;15.58;79.05
52656;SHT85;35474;51.032;6.998;2023-05-10T11:33:52;15.52;80.31
52656;SHT85;35474;51.032;6.998;2023-05-10T11:36:24;15.39;81.50
52656;SHT85;35474;51.032;6.998;2023-05-10T11:38:52;15.45;81.86
52656;SHT85;35474;51.032;6.998;2023-05-10T11:41:19;15.42;81.88
52656;SHT85;35474;51.032;6.998;2023-05-10T11:43:49;15.61;81.50
52656;SHT85;35474;51.032;6.998;2023-05-10T11:46:19;15.63;81.04
52656;SHT85;35474;51.032;6.998;2023-05-10T11:48:48;16.04;79.76
52656;SHT85;35474;51.032;6.998;2023-05-10T11:51:24;15.94;79.50
52656;SHT85;35474;51.032;6.998;2023-05-10T11:53:55;16.14;79.26
52656;SHT85;35474;51.032;6.998;2023-05-10T11:56:23;16.31;78.76
52656;SHT85;35474;51.032;6.998;2023-05-10T11:58:56;17.02;77.15
52656;SHT85;35474;51.032;6.998;2023-05-10T12:01:24;17.61;72.36
52656;SHT85;35474;51.032;6.998;2023-05-10T12:03:53;17.61;73.27
52656;SHT85;35474;51.032;6.998;2023-05-10T12:06:21;18.83;70.32
52656;SHT85;35474;51.032;6.998;2023-05-10T12:08:48;18.36;71.00
52656;SHT85;35474;51.032;6.998;2023-05-10T12:11:19;18.36;69.62
52656;SHT85;35474;51.032;6.998;2023-05-10T12:13:47;17.71;71.07
52656;SHT85;35474;51.032;6.998;2023-05-10T12:16:19;17.91;70.84
52656;SHT85;35474;51.032;6.998;2023-05-10T12:18:50;18.58;70.04
52656;SHT85;35474;51.032;6.998;2023-05-10T12:21:19;18.04;69.88
52656;SHT85;35474;51.032;6.998;2023-05-10T12:23:49;18.61;68.36
52656;SHT85;35474;51.032;6.998;2023-05-10T12:26:17;19.45;68.09
52656;SHT85;35474;51.032;6.998;2023-05-10T12:28:43;19.35;66.61
52656;SHT85;35474;51.032;6.998;2023-05-10T12:31:10;18.46;66.77
52656;SHT85;35474;51.032;6.998;2023-05-10T12:33:38;18.47;67.97
52656;SHT85;35474;51.032;6.998;2023-05-10T12:36:05;18.32;68.74
52656;SHT85;35474;51.032;6.998;2023-05-10T12:38:34;18.58;66.52
52656;SHT85;35474;51.032;6.998;2023-05-10T12:41:07;19.16;64.78
52656;SHT85;35474;51.032;6.998;2023-05-10T12:43:36;18.33;65.11
52656;SHT85;35474;51.032;6.998;2023-05-10T12:46:04;18.87;64.07
52656;SHT85;35474;51.032;6.998;2023-05-10T12:48:35;19.06;64.77
52656;SHT85;35474;51.032;6.998;2023-05-10T12:51:03;18.33;65.71
52656;SHT85;35474;51.032;6.998;2023-05-10T12:53:30;19.31;64.31
52656;SHT85;35474;51.032;6.998;2023-05-10T12:55:57;18.87;65.09
52656;SHT85;35474;51.032;6.998;2023-05-10T12:58:24;18.77;65.58
52656;SHT85;35474;51.032;6.998;2023-05-10T13:01:00;18.81;64.54
52656;SHT85;35474;51.032;6.998;2023-05-10T13:03:28;19.25;64.28
52656;SHT85;35474;51.032;6.998;2023-05-10T13:05:55;18.20;65.24
52656;SHT85;35474;51.032;6.998;2023-05-10T13:08:21;18.33;65.44
52656;SHT85;35474;51.032;6.998;2023-05-10T13:10:48;18.34;65.78
52656;SHT85;35474;51.032;6.998;2023-05-10T13:13:15;18.17;65.36
52656;SHT85;35474;51.032;6.998;2023-05-10T13:15:42;18.34;66.13
52656;SHT85;35474;51.032;6.998;2023-05-10T13:18:08;18.34;66.79
52656;SHT85;35474;51.032;6.998;2023-05-10T13:20:35;18.37;65.17
52656;SHT85;35474;51.032;6.998;2023-05-10T13:23:01;18.53;64.35
52656;SHT85;35474;51.032;6.998;2023-05-10T13:25:28;19.52;63.21
52656;SHT85;35474;51.032;6.998;2023-05-10T13:27:56;20.14;60.50
52656;SHT85;35474;51.032;6.998;2023-05-10T13:30:22;19.77;61.10
52656;SHT85;35474;51.032;6.998;2023-05-10T13:32:50;19.26;62.99
52656;SHT85;35474;51.032;6.998;2023-05-10T13:35:17;18.71;63.58
52656;SHT85;35474;51.032;6.998;2023-05-10T13:37:43;19.22;64.16
52656;SHT85;35474;51.032;6.998;2023-05-10T13:40:10;19.05;61.39
52656;SHT85;35474;51.032;6.998;2023-05-10T13:42:37;19.46;62.15
52656;SHT85;35474;51.032;6.998;2023-05-10T13:45:04;20.10;59.96
52656;SHT85;35474;51.032;6.998;2023-05-10T13:47:31;19.78;60.98
52656;SHT85;35474;51.032;6.998;2023-05-10T13:49:58;19.04;62.68
52656;SHT85;35474;51.032;6.998;2023-05-10T13:52:25;18.37;64.11
52656;SHT85;35474;51.032;6.998;2023-05-10T13:54:52;20.03;61.19
52656;SHT85;35474;51.032;6.998;2023-05-10T13:57:21;20.08;61.03
52656;SHT85;35474;51.032;6.998;2023-05-10T13:59:48;18.73;62.83
52656;SHT85;35474;51.032;6.998;2023-05-10T14:02:15;18.32;64.96
52656;SHT85;35474;51.032;6.998;2023-05-10T14:04:41;19.05;63.11
52656;SHT85;35474;51.032;6.998;2023-05-10T14:07:08;19.04;63.70
52656;SHT85;35474;51.032;6.998;2023-05-10T14:09:35;18.99;60.87
52656;SHT85;35474;51.032;6.998;2023-05-10T14:12:01;18.36;63.42
52656;SHT85;35474;51.032;6.998;2023-05-10T14:14:28;18.75;64.00
52656;SHT85;35474;51.032;6.998;2023-05-10T14:16:55;19.20;63.80
52656;SHT85;35474;51.032;6.998;2023-05-10T14:19:22;19.80;62.06
52656;SHT85;35474;51.032;6.998;2023-05-10T14:21:49;19.38;63.37
52656;SHT85;35474;51.032;6.998;2023-05-10T14:24:15;19.53;62.64
52656;SHT85;35474;51.032;6.998;2023-05-10T14:26:42;19.98;61.16
52656;SHT85;35474;51.032;6.998;2023-05-10T14:29:08;20.89;59.14
52656;SHT85;35474;51.032;6.998;2023-05-10T14:31:37;20.96;58.67
52656;SHT85;35474;51.032;6.998;2023-05-10T14:34:04;20.62;60.83
52656;SHT85;35474;51.032;6.998;2023-05-10T14:36:32;19.67;64.70
52656;SHT85;35474;51.032;6.998;2023-05-10T14:38:58;19.94;63.12
52656;SHT85;35474;51.032;6.998;2023-05-10T14:41:25;19.90;63.42
52656;SHT85;35474;51.032;6.998;2023-05-10T14:43:52;19.26;67.12
52656;SHT85;35474;51.032;6.998;2023-05-10T14:46:18;19.12;66.92
52656;SHT85;35474;51.032;6.998;2023-05-10T14:48:46;19.12;67.57
52656;SHT85;35474;51.032;6.998;2023-05-10T14:51:12;19.31;67.27
52656;SHT85;35474;51.032;6.998;2023-05-10T14:53:39;19.11;67.38
52656;SHT85;35474;51.032;6.998;2023-05-10T14:56:06;19.28;67.01
52656;SHT85;35474;51.032;6.998;2023-05-10T14:58:33;19.09;66.41
52656;SHT85;35474;51.032;6.998;2023-05-10T15:01:00;19.01;67.02
52656;SHT85;35474;51.032;6.998;2023-05-10T15:03:27;18.81;67.21
52656;SHT85;35474;51.032;6.998;2023-05-10T15:05:55;18.51;68.01
52656;SHT85;35474;51.032;6.998;2023-05-10T15:08:23;18.44;68.74
52656;SHT85;35474;51.032;6.998;2023-05-10T15:10:53;18.22;69.58
52656;SHT85;35474;51.032;6.998;2023-05-10T15:13:21;18.20;69.36
52656;SHT85;35474;51.032;6.998;2023-05-10T15:15:48;18.22;69.04
52656;SHT85;35474;51.032;6.998;2023-05-10T15:18:14;17.92;69.38
52656;SHT85;35474;51.032;6.998;2023-05-10T15:20:41;17.95;69.58
52656;SHT85;35474;51.032;6.998;2023-05-10T15:23:08;17.99;69.91
52656;SHT85;35474;51.032;6.998;2023-05-10T15:25:35;18.13;69.50
52656;SHT85;35474;51.032;6.998;2023-05-10T15:28:03;17.99;69.61
52656;SHT85;35474;51.032;6.998;2023-05-10T15:30:30;17.91;70.61
52656;SHT85;35474;51.032;6.998;2023-05-10T15:32:57;17.89;70.89
52656;SHT85;35474;51.032;6.998;2023-05-10T15:35:25;18.04;70.89
52656;SHT85;35474;51.032;6.998;2023-05-10T15:37:52;17.95;71.70
52656;SHT85;35474;51.032;6.998;2023-05-10T15:40:19;17.72;71.96
52656;SHT85;35474;51.032;6.998;2023-05-10T15:42:45;17.58;73.45
52656;SHT85;35474;51.032;6.998;2023-05-10T15:45:12;17.59;72.75
52656;SHT85;35474;51.032;6.998;2023-05-10T15:47:39;17.75;72.20
52656;SHT85;35474;51.032;6.998;2023-05-10T15:50:06;17.68;72.39
52656;SHT85;35474;51.032;6.998;2023-05-10T15:52:33;17.38;73.57
52656;SHT85;35474;51.032;6.998;2023-05-10T15:55:01;17.06;76.99
52656;SHT85;35474;51.032;6.998;2023-05-10T15:57:28;16.85;78.57
52656;SHT85;35474;51.032;6.998;2023-05-10T15:59:55;16.55;79.62
52656;SHT85;35474;51.032;6.998;2023-05-10T16:02:21;16.06;78.83
52656;SHT85;35474;51.032;6.998;2023-05-10T16:04:48;15.97;81.91
52656;SHT85;35474;51.032;6.998;2023-05-10T16:07:15;16.09;82.24
52656;SHT85;35474;51.032;6.998;2023-05-10T16:09:42;15.99;81.77